• Join FlightAware (Why Join?)
  • Login
  • US Flag 
12:19AM EST


 

Airport Tracker/Info


-or-


 

Live Flight TrackerFlight Track Log ✈ SVA1460 ✈ 14-Apr-2014 ✈ OEJN / JED - OEMA / MED

Flight Track Log - Related Links

Times and Time Zones

All times are in EDT time to prevent confusion due to time zone crossing. See the SVA1460 flight status page for this flight to view local times or setup timezone preferences in your user account.

Time Position Orientation Groundspeed Altitude Reporting Facility
EDT Latitude Longitude Course Direction KTS MPH feet Rate Location/Type
02:58AM 21.9673 39.2104 10° North  Level Estimated
02:59AM 22.0392 39.2239 10° North  Level Estimated
03:00AM 22.1112 39.2374 10° North  Level Estimated
03:01AM 22.1831 39.2509 10° North  Level Estimated
03:02AM 22.2550 39.2645 10° North  Level Estimated
03:03AM 22.3269 39.2780 10° North  Level Estimated
03:04AM 22.3989 39.2916 10° North  Level Estimated
03:05AM 22.4708 39.3052 10° North  Level Estimated
03:06AM 22.5427 39.3188 10° North  Level Estimated
03:07AM 22.6146 39.3324 10° North  Level Estimated
03:08AM 22.6866 39.3461 10° North  Level Estimated
03:09AM 22.7585 39.3597 10° North  Level Estimated
03:10AM 22.8384 39.3749 10° North  Level Estimated
03:11AM 22.9183 39.3900 10° North  Level Estimated
03:12AM 22.9982 39.4053 10° North  Level Estimated
03:13AM 23.0781 39.4205 10° North  Level Estimated
03:14AM 23.1580 39.4357 10° North  Level Estimated
03:15AM 23.2379 39.4510 10° North  Level Estimated
03:16AM 23.3178 39.4663 10° North  Level Estimated
03:17AM 23.3977 39.4816 10° North  Level Estimated
03:18AM 23.4776 39.4969 10° North  Level Estimated
03:19AM 23.5575 39.5122 10° North  Level Estimated
03:20AM 23.6374 39.5276 10° North  Level Estimated
03:21AM 23.7173 39.5430 10° North  Level Estimated
03:22AM 23.7972 39.5584 10° North  Level Estimated
03:23AM 23.8771 39.5738 10° North  Level Estimated
03:24AM 23.9569 39.5892 10° North  Level Estimated
03:25AM 24.0368 39.6047 10° North  Level Estimated
03:26AM 24.1167 39.6201 10° North  Level Estimated
03:27AM 24.1966 39.6356 10° North  Level Estimated
03:28AM 24.2765 39.6511 10° North  Level Estimated
03:29AM 24.3563 39.6667 10° North  Level Estimated
03:30AM 24.4362 39.6822 10° North  Level Estimated
03:31AM 24.5161 39.6978 10° North  Level Estimated
03:32AM 24.5534 39.7051 10° North  Level Estimated